sensor_id;sensor_type;location;lat;lon;timestamp;P1;durP1;ratioP1;P2;durP2;ratioP2
50709;SDS011;37033;49.994;21.992;2023-02-08T00:00:55;44.80;;;19.20;;
50709;SDS011;37033;49.994;21.992;2023-02-08T00:03:44;44.20;;;19.30;;
50709;SDS011;37033;49.994;21.992;2023-02-08T00:06:35;39.80;;;17.70;;
50709;SDS011;37033;49.994;21.992;2023-02-08T00:09:24;56.10;;;22.00;;
50709;SDS011;37033;49.994;21.992;2023-02-08T00:12:14;47.70;;;20.60;;
50709;SDS011;37033;49.994;21.992;2023-02-08T00:15:04;48.90;;;22.30;;
50709;SDS011;37033;49.994;21.992;2023-02-08T00:17:54;50.10;;;20.10;;
50709;SDS011;37033;49.994;21.992;2023-02-08T00:20:43;48.60;;;21.40;;
50709;SDS011;37033;49.994;21.992;2023-02-08T00:23:34;52.40;;;21.70;;
50709;SDS011;37033;49.994;21.992;2023-02-08T00:26:23;53.20;;;20.30;;
50709;SDS011;37033;49.994;21.992;2023-02-08T00:29:13;50.20;;;20.10;;
50709;SDS011;37033;49.994;21.992;2023-02-08T00:32:03;42.10;;;18.80;;
50709;SDS011;37033;49.994;21.992;2023-02-08T00:34:52;37.40;;;17.90;;
50709;SDS011;37033;49.994;21.992;2023-02-08T00:37:42;43.60;;;18.20;;
50709;SDS011;37033;49.994;21.992;2023-02-08T00:40:33;35.90;;;16.20;;
50709;SDS011;37033;49.994;21.992;2023-02-08T00:43:23;37.60;;;16.20;;
50709;SDS011;37033;49.994;21.992;2023-02-08T00:46:13;41.70;;;17.10;;
50709;SDS011;37033;49.994;21.992;2023-02-08T00:49:02;34.10;;;14.90;;
50709;SDS011;37033;49.994;21.992;2023-02-08T00:51:52;40.20;;;16.20;;
50709;SDS011;37033;49.994;21.992;2023-02-08T00:54:41;36.90;;;16.00;;
50709;SDS011;37033;49.994;21.992;2023-02-08T00:57:32;34.60;;;16.00;;
50709;SDS011;37033;49.994;21.992;2023-02-08T01:00:22;33.60;;;14.60;;
50709;SDS011;37033;49.994;21.992;2023-02-08T01:03:12;43.10;;;16.60;;
50709;SDS011;37033;49.994;21.992;2023-02-08T01:06:02;38.30;;;16.10;;
50709;SDS011;37033;49.994;21.992;2023-02-08T01:08:54;36.60;;;14.80;;
50709;SDS011;37033;49.994;21.992;2023-02-08T01:11:43;40.70;;;17.80;;
50709;SDS011;37033;49.994;21.992;2023-02-08T01:14:33;35.90;;;18.20;;
50709;SDS011;37033;49.994;21.992;2023-02-08T01:17:23;35.10;;;15.10;;
50709;SDS011;37033;49.994;21.992;2023-02-08T01:20:13;35.90;;;15.50;;
50709;SDS011;37033;49.994;21.992;2023-02-08T01:23:06;30.40;;;13.70;;
50709;SDS011;37033;49.994;21.992;2023-02-08T01:25:55;29.50;;;13.80;;
50709;SDS011;37033;49.994;21.992;2023-02-08T01:28:45;27.50;;;13.60;;
50709;SDS011;37033;49.994;21.992;2023-02-08T01:31:36;31.90;;;13.10;;
50709;SDS011;37033;49.994;21.992;2023-02-08T01:34:27;28.20;;;11.60;;
50709;SDS011;37033;49.994;21.992;2023-02-08T01:37:17;26.90;;;13.10;;
50709;SDS011;37033;49.994;21.992;2023-02-08T01:40:07;28.20;;;13.60;;
50709;SDS011;37033;49.994;21.992;2023-02-08T01:42:58;25.90;;;12.40;;
50709;SDS011;37033;49.994;21.992;2023-02-08T01:45:48;29.10;;;11.50;;
50709;SDS011;37033;49.994;21.992;2023-02-08T01:48:38;25.60;;;11.30;;
50709;SDS011;37033;49.994;21.992;2023-02-08T01:51:29;28.90;;;12.50;;
50709;SDS011;37033;49.994;21.992;2023-02-08T01:54:22;23.80;;;11.50;;
50709;SDS011;37033;49.994;21.992;2023-02-08T01:57:15;24.50;;;11.80;;
50709;SDS011;37033;49.994;21.992;2023-02-08T02:00:08;25.80;;;12.60;;
50709;SDS011;37033;49.994;21.992;2023-02-08T02:03:02;25.40;;;11.60;;
50709;SDS011;37033;49.994;21.992;2023-02-08T02:05:53;22.90;;;11.50;;
50709;SDS011;37033;49.994;21.992;2023-02-08T02:08:48;25.40;;;10.90;;
50709;SDS011;37033;49.994;21.992;2023-02-08T02:11:42;23.40;;;11.30;;
50709;SDS011;37033;49.994;21.992;2023-02-08T02:14:32;24.70;;;11.50;;
50709;SDS011;37033;49.994;21.992;2023-02-08T02:17:24;28.80;;;12.20;;
50709;SDS011;37033;49.994;21.992;2023-02-08T02:20:15;20.90;;;9.40;;
50709;SDS011;37033;49.994;21.992;2023-02-08T02:23:19;25.60;;;11.40;;
50709;SDS011;37033;49.994;21.992;2023-02-08T02:26:55;27.00;;;10.70;;
50709;SDS011;37033;49.994;21.992;2023-02-08T02:29:58;28.40;;;12.30;;
50709;SDS011;37033;49.994;21.992;2023-02-08T02:33:09;20.30;;;9.50;;
50709;SDS011;37033;49.994;21.992;2023-02-08T02:36:15;24.00;;;9.40;;
50709;SDS011;37033;49.994;21.992;2023-02-08T02:39:14;21.90;;;10.10;;
50709;SDS011;37033;49.994;21.992;2023-02-08T02:42:13;18.20;;;8.90;;
50709;SDS011;37033;49.994;21.992;2023-02-08T02:45:29;23.40;;;9.20;;
50709;SDS011;37033;49.994;21.992;2023-02-08T02:48:25;26.60;;;10.70;;
50709;SDS011;37033;49.994;21.992;2023-02-08T02:51:19;23.00;;;10.70;;
50709;SDS011;37033;49.994;21.992;2023-02-08T02:54:15;31.40;;;10.40;;
50709;SDS011;37033;49.994;21.992;2023-02-08T02:57:06;18.10;;;9.40;;
50709;SDS011;37033;49.994;21.992;2023-02-08T02:59:59;19.30;;;10.20;;
50709;SDS011;37033;49.994;21.992;2023-02-08T03:02:53;21.20;;;11.40;;
50709;SDS011;37033;49.994;21.992;2023-02-08T03:05:44;15.90;;;8.60;;
50709;SDS011;37033;49.994;21.992;2023-02-08T03:11:54;21.70;;;9.50;;
50709;SDS011;37033;49.994;21.992;2023-02-08T03:14:53;21.20;;;8.90;;
50709;SDS011;37033;49.994;21.992;2023-02-08T03:17:54;23.30;;;10.30;;
50709;SDS011;37033;49.994;21.992;2023-02-08T03:20:52;15.00;;;9.00;;
50709;SDS011;37033;49.994;21.992;2023-02-08T03:23:51;18.00;;;8.40;;
50709;SDS011;37033;49.994;21.992;2023-02-08T03:26:51;17.60;;;8.50;;
50709;SDS011;37033;49.994;21.992;2023-02-08T03:29:46;18.60;;;7.70;;
50709;SDS011;37033;49.994;21.992;2023-02-08T03:32:43;15.60;;;7.70;;
50709;SDS011;37033;49.994;21.992;2023-02-08T03:35:39;14.40;;;7.60;;
50709;SDS011;37033;49.994;21.992;2023-02-08T03:38:34;14.50;;;7.50;;
50709;SDS011;37033;49.994;21.992;2023-02-08T03:41:27;15.80;;;7.70;;
50709;SDS011;37033;49.994;21.992;2023-02-08T03:44:21;17.50;;;8.10;;
50709;SDS011;37033;49.994;21.992;2023-02-08T03:47:15;14.70;;;6.80;;
50709;SDS011;37033;49.994;21.992;2023-02-08T03:50:09;17.30;;;7.90;;
50709;SDS011;37033;49.994;21.992;2023-02-08T03:53:02;14.40;;;7.90;;
50709;SDS011;37033;49.994;21.992;2023-02-08T03:55:58;14.90;;;6.70;;
50709;SDS011;37033;49.994;21.992;2023-02-08T03:58:50;15.30;;;7.90;;
50709;SDS011;37033;49.994;21.992;2023-02-08T04:01:47;16.70;;;7.40;;
50709;SDS011;37033;49.994;21.992;2023-02-08T04:04:45;17.90;;;6.40;;
50709;SDS011;37033;49.994;21.992;2023-02-08T04:07:37;16.80;;;7.50;;
50709;SDS011;37033;49.994;21.992;2023-02-08T04:10:26;17.60;;;7.70;;
50709;SDS011;37033;49.994;21.992;2023-02-08T04:13:16;22.20;;;9.50;;
50709;SDS011;37033;49.994;21.992;2023-02-08T04:16:06;17.20;;;8.80;;
50709;SDS011;37033;49.994;21.992;2023-02-08T04:18:58;16.90;;;8.10;;
50709;SDS011;37033;49.994;21.992;2023-02-08T04:21:47;18.70;;;8.80;;
50709;SDS011;37033;49.994;21.992;2023-02-08T04:24:37;21.00;;;8.70;;
50709;SDS011;37033;49.994;21.992;2023-02-08T04:27:26;19.70;;;8.40;;
50709;SDS011;37033;49.994;21.992;2023-02-08T04:30:16;19.30;;;8.50;;
50709;SDS011;37033;49.994;21.992;2023-02-08T04:33:06;20.50;;;9.60;;
50709;SDS011;37033;49.994;21.992;2023-02-08T04:35:57;17.40;;;8.20;;
50709;SDS011;37033;49.994;21.992;2023-02-08T04:38:47;18.60;;;9.30;;
50709;SDS011;37033;49.994;21.992;2023-02-08T04:41:36;22.20;;;8.60;;
50709;SDS011;37033;49.994;21.992;2023-02-08T04:44:26;17.20;;;9.30;;
50709;SDS011;37033;49.994;21.992;2023-02-08T04:47:18;18.80;;;10.60;;
50709;SDS011;37033;49.994;21.992;2023-02-08T04:50:08;18.40;;;9.90;;
50709;SDS011;37033;49.994;21.992;2023-02-08T04:52:58;16.30;;;8.80;;
50709;SDS011;37033;49.994;21.992;2023-02-08T04:55:48;18.10;;;10.40;;
50709;SDS011;37033;49.994;21.992;2023-02-08T04:58:38;17.50;;;9.10;;
50709;SDS011;37033;49.994;21.992;2023-02-08T05:01:28;23.90;;;9.90;;
50709;SDS011;37033;49.994;21.992;2023-02-08T05:04:18;20.60;;;10.70;;
50709;SDS011;37033;49.994;21.992;2023-02-08T05:07:07;26.50;;;12.30;;
50709;SDS011;37033;49.994;21.992;2023-02-08T05:09:57;27.80;;;12.10;;
50709;SDS011;37033;49.994;21.992;2023-02-08T05:12:47;21.60;;;10.50;;
50709;SDS011;37033;49.994;21.992;2023-02-08T05:15:37;25.20;;;12.50;;
50709;SDS011;37033;49.994;21.992;2023-02-08T05:18:26;20.20;;;11.40;;
50709;SDS011;37033;49.994;21.992;2023-02-08T05:21:15;22.50;;;9.80;;
50709;SDS011;37033;49.994;21.992;2023-02-08T05:24:06;20.00;;;10.40;;
50709;SDS011;37033;49.994;21.992;2023-02-08T05:26:58;21.70;;;11.20;;
50709;SDS011;37033;49.994;21.992;2023-02-08T05:29:48;19.00;;;10.10;;
50709;SDS011;37033;49.994;21.992;2023-02-08T05:32:38;21.00;;;11.70;;
50709;SDS011;37033;49.994;21.992;2023-02-08T05:35:27;22.90;;;10.90;;
50709;SDS011;37033;49.994;21.992;2023-02-08T05:38:17;23.70;;;10.60;;
50709;SDS011;37033;49.994;21.992;2023-02-08T05:41:06;18.10;;;10.20;;
50709;SDS011;37033;49.994;21.992;2023-02-08T05:43:56;20.20;;;10.70;;
50709;SDS011;37033;49.994;21.992;2023-02-08T05:46:46;15.30;;;8.70;;
50709;SDS011;37033;49.994;21.992;2023-02-08T05:49:37;14.70;;;8.90;;
50709;SDS011;37033;49.994;21.992;2023-02-08T05:52:26;17.60;;;9.30;;
50709;SDS011;37033;49.994;21.992;2023-02-08T05:55:16;15.90;;;10.10;;
50709;SDS011;37033;49.994;21.992;2023-02-08T05:58:05;15.00;;;8.90;;
50709;SDS011;37033;49.994;21.992;2023-02-08T06:00:54;14.00;;;8.30;;
50709;SDS011;37033;49.994;21.992;2023-02-08T06:03:45;12.20;;;7.90;;
50709;SDS011;37033;49.994;21.992;2023-02-08T06:06:35;15.60;;;8.70;;
50709;SDS011;37033;49.994;21.992;2023-02-08T06:09:25;17.30;;;8.90;;
50709;SDS011;37033;49.994;21.992;2023-02-08T06:12:14;14.20;;;7.50;;
50709;SDS011;37033;49.994;21.992;2023-02-08T06:15:05;18.30;;;9.10;;
50709;SDS011;37033;49.994;21.992;2023-02-08T06:17:55;15.80;;;8.70;;
50709;SDS011;37033;49.994;21.992;2023-02-08T06:20:45;24.30;;;9.80;;
50709;SDS011;37033;49.994;21.992;2023-02-08T06:23:34;17.40;;;9.50;;
50709;SDS011;37033;49.994;21.992;2023-02-08T06:26:24;17.90;;;8.70;;
50709;SDS011;37033;49.994;21.992;2023-02-08T06:29:14;20.00;;;10.40;;
50709;SDS011;37033;49.994;21.992;2023-02-08T06:32:04;18.40;;;10.40;;
50709;SDS011;37033;49.994;21.992;2023-02-08T06:34:54;28.60;;;12.60;;
50709;SDS011;37033;49.994;21.992;2023-02-08T06:37:43;29.30;;;13.00;;
50709;SDS011;37033;49.994;21.992;2023-02-08T06:40:33;21.10;;;11.50;;
50709;SDS011;37033;49.994;21.992;2023-02-08T06:43:22;21.60;;;10.80;;
50709;SDS011;37033;49.994;21.992;2023-02-08T06:46:12;18.10;;;9.80;;
50709;SDS011;37033;49.994;21.992;2023-02-08T06:49:02;20.30;;;11.00;;
50709;SDS011;37033;49.994;21.992;2023-02-08T06:51:51;22.50;;;11.00;;
50709;SDS011;37033;49.994;21.992;2023-02-08T06:54:41;22.50;;;12.50;;
50709;SDS011;37033;49.994;21.992;2023-02-08T06:57:31;28.80;;;13.70;;
50709;SDS011;37033;49.994;21.992;2023-02-08T07:00:20;27.80;;;12.90;;
50709;SDS011;37033;49.994;21.992;2023-02-08T07:03:10;21.10;;;10.20;;
50709;SDS011;37033;49.994;21.992;2023-02-08T07:06:02;19.60;;;9.90;;
50709;SDS011;37033;49.994;21.992;2023-02-08T07:08:51;22.60;;;10.10;;
50709;SDS011;37033;49.994;21.992;2023-02-08T07:11:40;14.70;;;9.20;;
50709;SDS011;37033;49.994;21.992;2023-02-08T07:14:30;39.80;;;20.20;;
50709;SDS011;37033;49.994;21.992;2023-02-08T07:17:20;17.90;;;9.70;;
50709;SDS011;37033;49.994;21.992;2023-02-08T07:20:11;16.80;;;8.80;;
50709;SDS011;37033;49.994;21.992;2023-02-08T07:23:01;9.10;;;6.60;;
50709;SDS011;37033;49.994;21.992;2023-02-08T07:25:58;15.00;;;8.00;;
50709;SDS011;37033;49.994;21.992;2023-02-08T07:28:49;8.90;;;5.70;;
50709;SDS011;37033;49.994;21.992;2023-02-08T07:31:38;10.00;;;6.60;;
50709;SDS011;37033;49.994;21.992;2023-02-08T07:34:28;10.00;;;6.20;;
50709;SDS011;37033;49.994;21.992;2023-02-08T07:37:19;10.90;;;6.90;;
50709;SDS011;37033;49.994;21.992;2023-02-08T07:40:10;12.10;;;6.70;;
50709;SDS011;37033;49.994;21.992;2023-02-08T07:43:00;9.10;;;5.30;;
50709;SDS011;37033;49.994;21.992;2023-02-08T07:45:50;7.40;;;4.80;;
50709;SDS011;37033;49.994;21.992;2023-02-08T07:48:40;7.40;;;5.20;;
50709;SDS011;37033;49.994;21.992;2023-02-08T07:51:30;9.80;;;5.00;;
50709;SDS011;37033;49.994;21.992;2023-02-08T07:54:20;11.00;;;6.50;;
50709;SDS011;37033;49.994;21.992;2023-02-08T07:57:10;10.10;;;6.70;;
50709;SDS011;37033;49.994;21.992;2023-02-08T08:00:09;9.70;;;5.70;;
50709;SDS011;37033;49.994;21.992;2023-02-08T08:03:00;10.00;;;6.00;;
50709;SDS011;37033;49.994;21.992;2023-02-08T08:05:49;8.50;;;5.60;;
50709;SDS011;37033;49.994;21.992;2023-02-08T08:08:40;9.70;;;5.90;;
50709;SDS011;37033;49.994;21.992;2023-02-08T08:11:33;10.70;;;5.90;;
50709;SDS011;37033;49.994;21.992;2023-02-08T08:14:22;14.20;;;6.00;;
50709;SDS011;37033;49.994;21.992;2023-02-08T08:17:12;11.40;;;5.80;;
50709;SDS011;37033;49.994;21.992;2023-02-08T08:20:01;9.30;;;5.60;;
50709;SDS011;37033;49.994;21.992;2023-02-08T08:22:51;12.00;;;6.10;;
50709;SDS011;37033;49.994;21.992;2023-02-08T08:25:41;11.40;;;6.30;;
50709;SDS011;37033;49.994;21.992;2023-02-08T08:28:31;8.70;;;5.60;;
50709;SDS011;37033;49.994;21.992;2023-02-08T08:31:20;10.60;;;5.70;;
50709;SDS011;37033;49.994;21.992;2023-02-08T08:34:10;10.90;;;6.30;;
50709;SDS011;37033;49.994;21.992;2023-02-08T08:37:00;12.30;;;6.80;;
50709;SDS011;37033;49.994;21.992;2023-02-08T08:39:50;13.00;;;6.30;;
50709;SDS011;37033;49.994;21.992;2023-02-08T08:42:40;11.90;;;6.10;;
50709;SDS011;37033;49.994;21.992;2023-02-08T08:45:29;9.50;;;5.80;;
50709;SDS011;37033;49.994;21.992;2023-02-08T08:48:19;8.90;;;6.00;;
50709;SDS011;37033;49.994;21.992;2023-02-08T08:51:08;7.00;;;5.00;;
50709;SDS011;37033;49.994;21.992;2023-02-08T08:53:58;8.90;;;5.60;;
50709;SDS011;37033;49.994;21.992;2023-02-08T08:56:47;6.60;;;4.80;;
50709;SDS011;37033;49.994;21.992;2023-02-08T08:59:37;8.70;;;6.00;;
50709;SDS011;37033;49.994;21.992;2023-02-08T09:02:26;5.60;;;4.30;;
50709;SDS011;37033;49.994;21.992;2023-02-08T09:05:16;6.60;;;4.20;;
50709;SDS011;37033;49.994;21.992;2023-02-08T09:08:05;5.20;;;3.70;;
50709;SDS011;37033;49.994;21.992;2023-02-08T09:10:55;6.60;;;4.40;;
50709;SDS011;37033;49.994;21.992;2023-02-08T09:13:50;8.80;;;5.60;;
50709;SDS011;37033;49.994;21.992;2023-02-08T09:16:42;6.70;;;5.10;;
50709;SDS011;37033;49.994;21.992;2023-02-08T09:19:33;7.70;;;4.80;;
50709;SDS011;37033;49.994;21.992;2023-02-08T09:22:23;5.90;;;4.00;;
50709;SDS011;37033;49.994;21.992;2023-02-08T09:25:12;10.60;;;5.70;;
50709;SDS011;37033;49.994;21.992;2023-02-08T09:28:02;9.80;;;5.20;;
50709;SDS011;37033;49.994;21.992;2023-02-08T09:30:52;6.70;;;4.20;;
50709;SDS011;37033;49.994;21.992;2023-02-08T09:33:42;6.30;;;4.20;;
50709;SDS011;37033;49.994;21.992;2023-02-08T09:36:33;8.70;;;5.50;;
50709;SDS011;37033;49.994;21.992;2023-02-08T09:39:24;6.30;;;4.50;;
50709;SDS011;37033;49.994;21.992;2023-02-08T09:45:43;9.70;;;5.00;;
50709;SDS011;37033;49.994;21.992;2023-02-08T09:48:38;12.70;;;6.80;;
50709;SDS011;37033;49.994;21.992;2023-02-08T09:51:31;8.10;;;5.80;;
50709;SDS011;37033;49.994;21.992;2023-02-08T09:54:27;11.40;;;6.10;;
50709;SDS011;37033;49.994;21.992;2023-02-08T09:57:20;16.70;;;9.20;;
50709;SDS011;37033;49.994;21.992;2023-02-08T10:00:15;10.20;;;7.30;;
50709;SDS011;37033;49.994;21.992;2023-02-08T10:03:09;7.80;;;5.80;;
50709;SDS011;37033;49.994;21.992;2023-02-08T10:06:14;11.30;;;5.90;;
50709;SDS011;37033;49.994;21.992;2023-02-08T10:09:05;10.10;;;6.60;;
50709;SDS011;37033;49.994;21.992;2023-02-08T10:12:03;7.90;;;5.50;;
50709;SDS011;37033;49.994;21.992;2023-02-08T10:15:03;7.90;;;5.50;;
50709;SDS011;37033;49.994;21.992;2023-02-08T10:18:03;10.20;;;6.40;;
50709;SDS011;37033;49.994;21.992;2023-02-08T10:21:07;10.20;;;6.30;;
50709;SDS011;37033;49.994;21.992;2023-02-08T10:24:13;11.70;;;6.30;;
50709;SDS011;37033;49.994;21.992;2023-02-08T10:27:15;10.90;;;6.50;;
50709;SDS011;37033;49.994;21.992;2023-02-08T10:30:13;10.00;;;6.20;;
50709;SDS011;37033;49.994;21.992;2023-02-08T10:33:17;13.20;;;6.00;;
50709;SDS011;37033;49.994;21.992;2023-02-08T10:36:12;8.60;;;4.80;;
50709;SDS011;37033;49.994;21.992;2023-02-08T10:39:10;8.10;;;5.70;;
50709;SDS011;37033;49.994;21.992;2023-02-08T10:42:05;10.60;;;5.40;;
50709;SDS011;37033;49.994;21.992;2023-02-08T10:45:07;10.90;;;5.80;;
50709;SDS011;37033;49.994;21.992;2023-02-08T10:48:12;9.20;;;6.10;;
50709;SDS011;37033;49.994;21.992;2023-02-08T10:51:09;11.60;;;7.00;;
50709;SDS011;37033;49.994;21.992;2023-02-08T10:54:14;10.20;;;6.60;;
50709;SDS011;37033;49.994;21.992;2023-02-08T10:57:09;9.20;;;5.70;;
50709;SDS011;37033;49.994;21.992;2023-02-08T11:00:06;12.90;;;6.40;;
50709;SDS011;37033;49.994;21.992;2023-02-08T11:03:11;8.20;;;5.70;;
50709;SDS011;37033;49.994;21.992;2023-02-08T11:06:25;9.50;;;6.70;;
50709;SDS011;37033;49.994;21.992;2023-02-08T11:09:24;12.20;;;6.70;;
50709;SDS011;37033;49.994;21.992;2023-02-08T11:12:17;10.00;;;5.80;;
50709;SDS011;37033;49.994;21.992;2023-02-08T11:15:22;8.90;;;5.80;;
50709;SDS011;37033;49.994;21.992;2023-02-08T11:18:18;17.10;;;9.00;;
50709;SDS011;37033;49.994;21.992;2023-02-08T11:21:21;14.90;;;7.70;;
50709;SDS011;37033;49.994;21.992;2023-02-08T11:24:31;18.20;;;9.10;;
50709;SDS011;37033;49.994;21.992;2023-02-08T11:27:30;16.30;;;9.40;;
50709;SDS011;37033;49.994;21.992;2023-02-08T11:30:23;13.00;;;8.70;;
50709;SDS011;37033;49.994;21.992;2023-02-08T11:33:29;24.60;;;9.30;;
50709;SDS011;37033;49.994;21.992;2023-02-08T11:36:19;16.10;;;8.40;;
50709;SDS011;37033;49.994;21.992;2023-02-08T11:39:16;14.80;;;8.70;;
50709;SDS011;37033;49.994;21.992;2023-02-08T11:42:20;27.40;;;11.40;;
50709;SDS011;37033;49.994;21.992;2023-02-08T11:45:19;19.30;;;10.60;;
50709;SDS011;37033;49.994;21.992;2023-02-08T11:48:15;17.10;;;10.10;;
50709;SDS011;37033;49.994;21.992;2023-02-08T11:51:13;22.10;;;11.20;;
50709;SDS011;37033;49.994;21.992;2023-02-08T11:54:30;23.20;;;11.70;;
50709;SDS011;37033;49.994;21.992;2023-02-08T11:57:22;18.00;;;10.40;;
50709;SDS011;37033;49.994;21.992;2023-02-08T12:00:17;20.90;;;11.00;;
50709;SDS011;37033;49.994;21.992;2023-02-08T12:03:11;25.50;;;11.40;;
50709;SDS011;37033;49.994;21.992;2023-02-08T12:06:10;21.70;;;10.40;;
50709;SDS011;37033;49.994;21.992;2023-02-08T12:09:15;19.90;;;10.20;;
50709;SDS011;37033;49.994;21.992;2023-02-08T12:12:19;18.80;;;10.50;;
50709;SDS011;37033;49.994;21.992;2023-02-08T12:15:21;26.70;;;12.40;;
50709;SDS011;37033;49.994;21.992;2023-02-08T12:18:29;27.80;;;13.20;;
50709;SDS011;37033;49.994;21.992;2023-02-08T12:21:38;22.50;;;11.50;;
50709;SDS011;37033;49.994;21.992;2023-02-08T12:24:32;24.50;;;11.20;;
50709;SDS011;37033;49.994;21.992;2023-02-08T12:27:30;25.40;;;12.40;;
50709;SDS011;37033;49.994;21.992;2023-02-08T12:30:31;19.40;;;10.30;;
50709;SDS011;37033;49.994;21.992;2023-02-08T12:33:29;21.10;;;11.20;;
50709;SDS011;37033;49.994;21.992;2023-02-08T12:36:35;19.90;;;10.60;;
50709;SDS011;37033;49.994;21.992;2023-02-08T12:39:35;19.30;;;10.40;;
50709;SDS011;37033;49.994;21.992;2023-02-08T12:42:53;28.10;;;12.00;;
50709;SDS011;37033;49.994;21.992;2023-02-08T12:46:04;22.50;;;11.00;;
50709;SDS011;37033;49.994;21.992;2023-02-08T12:49:13;18.90;;;10.80;;
50709;SDS011;37033;49.994;21.992;2023-02-08T12:52:21;18.00;;;9.60;;
50709;SDS011;37033;49.994;21.992;2023-02-08T12:55:19;19.20;;;10.20;;
50709;SDS011;37033;49.994;21.992;2023-02-08T12:58:17;17.10;;;10.10;;
50709;SDS011;37033;49.994;21.992;2023-02-08T13:01:14;21.40;;;11.00;;
50709;SDS011;37033;49.994;21.992;2023-02-08T13:04:06;19.40;;;9.80;;
50709;SDS011;37033;49.994;21.992;2023-02-08T13:07:02;26.40;;;9.90;;
50709;SDS011;37033;49.994;21.992;2023-02-08T13:09:58;16.30;;;9.30;;
50709;SDS011;37033;49.994;21.992;2023-02-08T13:12:50;28.40;;;12.00;;
50709;SDS011;37033;49.994;21.992;2023-02-08T13:15:44;33.40;;;12.10;;
50709;SDS011;37033;49.994;21.992;2023-02-08T13:21:31;23.20;;;10.10;;
50709;SDS011;37033;49.994;21.992;2023-02-08T13:24:30;17.10;;;10.20;;
50709;SDS011;37033;49.994;21.992;2023-02-08T13:27:22;14.90;;;9.90;;
50709;SDS011;37033;49.994;21.992;2023-02-08T13:30:16;22.40;;;11.00;;
50709;SDS011;37033;49.994;21.992;2023-02-08T13:33:13;18.60;;;9.70;;
50709;SDS011;37033;49.994;21.992;2023-02-08T13:36:08;20.60;;;11.20;;
50709;SDS011;37033;49.994;21.992;2023-02-08T13:42:22;25.30;;;10.90;;
50709;SDS011;37033;49.994;21.992;2023-02-08T13:45:21;46.30;;;15.10;;
50709;SDS011;37033;49.994;21.992;2023-02-08T13:48:13;32.60;;;12.30;;
50709;SDS011;37033;49.994;21.992;2023-02-08T13:51:05;36.80;;;13.20;;
50709;SDS011;37033;49.994;21.992;2023-02-08T13:54:14;17.90;;;9.60;;
50709;SDS011;37033;49.994;21.992;2023-02-08T13:57:26;20.70;;;10.30;;
50709;SDS011;37033;49.994;21.992;2023-02-08T14:00:32;13.30;;;8.40;;
50709;SDS011;37033;49.994;21.992;2023-02-08T14:03:23;21.50;;;9.80;;
50709;SDS011;37033;49.994;21.992;2023-02-08T14:06:18;18.50;;;9.00;;
50709;SDS011;37033;49.994;21.992;2023-02-08T14:12:04;19.40;;;10.20;;
50709;SDS011;37033;49.994;21.992;2023-02-08T14:15:06;23.80;;;11.40;;
50709;SDS011;37033;49.994;21.992;2023-02-08T14:18:20;17.00;;;10.50;;
50709;SDS011;37033;49.994;21.992;2023-02-08T14:21:20;21.50;;;10.00;;
50709;SDS011;37033;49.994;21.992;2023-02-08T14:24:20;21.50;;;9.70;;
50709;SDS011;37033;49.994;21.992;2023-02-08T14:27:17;19.50;;;10.70;;
50709;SDS011;37033;49.994;21.992;2023-02-08T14:30:21;22.40;;;10.90;;
50709;SDS011;37033;49.994;21.992;2023-02-08T14:33:15;20.50;;;10.70;;
50709;SDS011;37033;49.994;21.992;2023-02-08T14:36:19;19.70;;;10.10;;
50709;SDS011;37033;49.994;21.992;2023-02-08T14:39:22;18.20;;;9.80;;
50709;SDS011;37033;49.994;21.992;2023-02-08T14:42:14;29.50;;;11.50;;
50709;SDS011;37033;49.994;21.992;2023-02-08T14:45:38;25.00;;;10.80;;
50709;SDS011;37033;49.994;21.992;2023-02-08T14:48:28;25.00;;;9.60;;
50709;SDS011;37033;49.994;21.992;2023-02-08T14:51:20;24.30;;;12.40;;
50709;SDS011;37033;49.994;21.992;2023-02-08T14:54:16;30.00;;;13.80;;
50709;SDS011;37033;49.994;21.992;2023-02-08T14:57:13;21.40;;;9.50;;
50709;SDS011;37033;49.994;21.992;2023-02-08T15:00:18;23.40;;;12.00;;
50709;SDS011;37033;49.994;21.992;2023-02-08T15:03:13;23.20;;;10.80;;
50709;SDS011;37033;49.994;21.992;2023-02-08T15:06:12;28.20;;;12.70;;
50709;SDS011;37033;49.994;21.992;2023-02-08T15:09:20;19.60;;;10.40;;
50709;SDS011;37033;49.994;21.992;2023-02-08T15:12:14;35.40;;;12.00;;
50709;SDS011;37033;49.994;21.992;2023-02-08T15:15:21;29.60;;;12.70;;
50709;SDS011;37033;49.994;21.992;2023-02-08T15:18:16;34.40;;;13.60;;
50709;SDS011;37033;49.994;21.992;2023-02-08T15:21:14;89.00;;;33.90;;
50709;SDS011;37033;49.994;21.992;2023-02-08T15:27:00;38.20;;;17.30;;
50709;SDS011;37033;49.994;21.992;2023-02-08T15:29:50;35.30;;;17.50;;
50709;SDS011;37033;49.994;21.992;2023-02-08T15:32:40;54.00;;;22.30;;
50709;SDS011;37033;49.994;21.992;2023-02-08T15:35:30;51.10;;;22.60;;
50709;SDS011;37033;49.994;21.992;2023-02-08T15:38:22;54.60;;;22.90;;
50709;SDS011;37033;49.994;21.992;2023-02-08T15:41:13;54.20;;;24.60;;
50709;SDS011;37033;49.994;21.992;2023-02-08T15:44:16;44.80;;;22.20;;
50709;SDS011;37033;49.994;21.992;2023-02-08T15:47:08;46.60;;;19.20;;
50709;SDS011;37033;49.994;21.992;2023-02-08T15:50:05;47.50;;;21.60;;
50709;SDS011;37033;49.994;21.992;2023-02-08T15:53:04;54.40;;;22.80;;
50709;SDS011;37033;49.994;21.992;2023-02-08T15:56:01;40.80;;;17.70;;
50709;SDS011;37033;49.994;21.992;2023-02-08T15:58:53;46.20;;;20.10;;
50709;SDS011;37033;49.994;21.992;2023-02-08T16:01:46;45.70;;;17.40;;
50709;SDS011;37033;49.994;21.992;2023-02-08T16:04:41;37.20;;;15.50;;
50709;SDS011;37033;49.994;21.992;2023-02-08T16:07:33;31.50;;;14.60;;
50709;SDS011;37033;49.994;21.992;2023-02-08T16:10:28;33.40;;;14.80;;
50709;SDS011;37033;49.994;21.992;2023-02-08T16:13:22;43.40;;;16.10;;
50709;SDS011;37033;49.994;21.992;2023-02-08T16:16:15;36.70;;;15.60;;
50709;SDS011;37033;49.994;21.992;2023-02-08T16:19:16;38.50;;;16.00;;
50709;SDS011;37033;49.994;21.992;2023-02-08T16:22:22;41.30;;;15.00;;
50709;SDS011;37033;49.994;21.992;2023-02-08T16:25:22;35.40;;;14.20;;
50709;SDS011;37033;49.994;21.992;2023-02-08T16:28:23;39.60;;;17.30;;
50709;SDS011;37033;49.994;21.992;2023-02-08T16:31:14;56.50;;;19.40;;
50709;SDS011;37033;49.994;21.992;2023-02-08T16:34:12;48.80;;;17.90;;
50709;SDS011;37033;49.994;21.992;2023-02-08T16:37:04;47.70;;;18.70;;
50709;SDS011;37033;49.994;21.992;2023-02-08T16:40:12;48.90;;;18.70;;
50709;SDS011;37033;49.994;21.992;2023-02-08T16:43:34;46.40;;;18.30;;
50709;SDS011;37033;49.994;21.992;2023-02-08T16:46:25;45.90;;;19.00;;
50709;SDS011;37033;49.994;21.992;2023-02-08T16:49:15;42.40;;;19.20;;
50709;SDS011;37033;49.994;21.992;2023-02-08T16:52:04;45.40;;;18.60;;
50709;SDS011;37033;49.994;21.992;2023-02-08T16:54:58;45.40;;;18.00;;
50709;SDS011;37033;49.994;21.992;2023-02-08T16:57:48;42.20;;;18.30;;
50709;SDS011;37033;49.994;21.992;2023-02-08T17:00:40;47.90;;;19.50;;
50709;SDS011;37033;49.994;21.992;2023-02-08T17:03:30;56.20;;;20.90;;
50709;SDS011;37033;49.994;21.992;2023-02-08T17:06:26;56.40;;;21.40;;
50709;SDS011;37033;49.994;21.992;2023-02-08T17:09:17;67.50;;;25.10;;
50709;SDS011;37033;49.994;21.992;2023-02-08T17:12:09;61.20;;;23.60;;